Time;durP1;ratioP1;P1;durP2;ratioP2;P2;SDS_P1;SDS_P2;PMS_P1;PMS_P2;Temp;Humidity;BMP_temperature;BMP_pressure;BME280_temperature;BME280_humidity;BME280_pressure;Samples;Min_cycle;Max_cycle;Signal;HPM_P1;HPM_P2
2022/06/02 00:00:19;;;;;;;;;2.00;2.00;;;;;16.03;44.87;101176.38;5077177;27;45397;-64
2022/06/02 00:03:16;;;;;;;;;1.67;1.33;;;;;16.01;44.90;101175.59;5074018;27;45523;-64
2022/06/02 00:05:53;;;;;;;;;2.67;2.67;;;;;15.98;45.61;101178.50;5083220;27;45439;-63
2022/06/02 00:08:28;;;;;;;;;3.67;3.00;;;;;15.91;45.80;101182.56;5078486;27;46139;-64
2022/06/02 00:11:21;;;;;;;;;5.00;3.00;;;;;15.88;45.46;101180.94;5074070;27;45494;-64
2022/06/02 00:14:05;;;;;;;;;3.00;3.00;;;;;15.91;45.31;101187.94;5076540;27;45376;-63
2022/06/02 00:16:43;;;;;;;;;2.00;2.00;;;;;15.85;45.79;101191.03;5056577;28;45540;-63
2022/06/02 00:19:24;;;;;;;;;7.00;4.00;;;;;15.79;46.00;101188.78;5066325;27;46264;-65
2022/06/02 00:21:57;;;;;;;;;4.00;3.00;;;;;15.78;45.86;101181.69;5057312;27;45527;-63
2022/06/02 00:24:27;;;;;;;;;3.00;3.00;;;;;15.79;45.84;101189.63;5075627;27;45314;-62
2022/06/02 00:27:09;;;;;;;;;3.33;3.33;;;;;15.76;46.28;101189.84;5077929;27;45456;-64
2022/06/02 00:30:19;;;;;;;;;3.33;3.33;;;;;15.79;46.11;101200.38;5076592;27;45453;-64
2022/06/02 00:33:02;;;;;;;;;4.00;3.67;;;;;15.79;46.18;101211.09;5078066;28;45287;-64
2022/06/02 00:35:40;;;;;;;;;4.33;4.00;;;;;15.74;46.70;101204.31;5067416;27;45466;-63
2022/06/02 00:38:12;;;;;;;;;4.00;4.00;;;;;15.66;46.52;101207.53;5088803;27;45514;-64
2022/06/02 00:40:37;;;;;;;;;3.00;3.00;;;;;15.67;46.53;101203.88;5076265;27;45392;-63
2022/06/02 00:43:18;;;;;;;;;4.00;4.00;;;;;15.64;46.60;101217.50;5076121;27;45255;-64
2022/06/02 00:45:46;;;;;;;;;2.00;2.00;;;;;15.60;46.75;101211.47;5078109;27;45345;-63
2022/06/02 00:48:25;;;;;;;;;3.00;2.00;;;;;15.58;46.39;101213.34;5076529;27;45486;-63
2022/06/02 00:51:03;;;;;;;;;3.33;2.67;;;;;15.55;47.05;101212.72;5076070;27;46022;-63
2022/06/02 00:53:38;;;;;;;;;2.00;2.00;;;;;15.52;46.76;101207.56;5063751;27;45323;-64
2022/06/02 00:59:23;;;;;;;;;2.00;2.00;;;;;15.41;47.47;101205.59;5074534;27;45344;-63
2022/06/02 01:01:48;;;;;;;;;3.33;3.33;;;;;15.32;48.08;101209.72;5077397;28;46115;-64
2022/06/02 01:04:18;;;;;;;;;2.00;1.00;;;;;15.28;47.75;101207.38;5076783;27;45379;-63
2022/06/02 01:06:58;;;;;;;;;2.00;2.00;;;;;15.25;48.00;101205.75;5077687;27;45449;-63
2022/06/02 01:09:26;;;;;;;;;2.00;2.00;;;;;15.21;48.43;101209.56;5077455;27;45294;-67
2022/06/02 01:12:01;;;;;;;;;3.67;3.67;;;;;15.20;48.25;101193.59;5074375;27;46172;-63
2022/06/02 01:14:49;;;;;;;;;3.00;3.00;;;;;15.18;48.61;101207.09;5078561;27;45457;-63
2022/06/02 01:17:26;;;;;;;;;4.00;3.00;;;;;15.13;48.63;101205.69;5075347;27;45505;-63
2022/06/02 01:20:16;;;;;;;;;5.33;3.33;;;;;15.12;48.01;101206.66;5065729;27;45217;-63
2022/06/02 01:23:04;;;;;;;;;4.33;3.00;;;;;15.08;48.85;101200.63;5076241;27;46170;-63
2022/06/02 01:26:03;;;;;;;;;4.33;3.67;;;;;15.03;49.02;101200.94;5076661;27;45309;-64
2022/06/02 01:28:39;;;;;;;;;3.00;3.00;;;;;15.01;48.92;101202.00;5075693;27;45346;-62
2022/06/02 01:31:14;;;;;;;;;3.00;3.00;;;;;14.97;48.78;101197.78;5077163;27;45409;-64
2022/06/02 01:33:45;;;;;;;;;3.00;3.00;;;;;14.91;49.10;101191.00;5075608;27;45385;-62
2022/06/02 01:36:23;;;;;;;;;4.00;2.67;;;;;14.92;48.85;101197.22;5075123;27;47129;-65
2022/06/02 01:39:19;;;;;;;;;4.67;2.00;;;;;14.89;49.03;101200.09;5074315;27;45294;-63
2022/06/02 01:42:00;;;;;;;;;4.00;4.00;;;;;14.86;49.78;101187.78;5077833;27;45518;-63
2022/06/02 01:44:52;;;;;;;;;3.00;3.00;;;;;14.82;49.39;101193.41;5056583;28;46140;-63
2022/06/02 01:47:28;;;;;;;;;4.33;4.33;;;;;14.81;49.94;101200.59;5064296;27;45417;-64
2022/06/02 01:50:13;;;;;;;;;4.00;4.00;;;;;14.81;49.41;101205.06;5076749;27;45432;-64
2022/06/02 01:52:57;;;;;;;;;8.00;4.00;;;;;14.75;50.43;101217.91;5082453;27;45491;-63
2022/06/02 01:55:43;;;;;;;;;3.00;3.00;;;;;14.65;49.70;101219.44;5087931;27;45650;-62
2022/06/02 01:58:31;;;;;;;;;4.00;4.00;;;;;14.67;50.01;101214.84;5075877;27;45475;-63
2022/06/02 02:01:05;;;;;;;;;3.67;3.67;;;;;14.65;50.14;101216.78;5075984;27;45388;-64
2022/06/02 02:04:13;;;;;;;;;5.33;4.00;;;;;14.62;49.74;101216.13;5075953;27;45249;-63
2022/06/02 02:06:57;;;;;;;;;4.00;4.00;;;;;14.65;50.36;101218.59;5072433;28;45292;-65
2022/06/02 02:09:35;;;;;;;;;6.33;6.33;;;;;14.58;50.05;101218.09;5042567;27;45185;-63
2022/06/02 02:12:01;;;;;;;;;7.00;4.00;;;;;14.61;50.70;101217.94;5075646;27;45542;-64
2022/06/02 02:14:56;;;;;;;;;4.00;3.00;;;;;14.55;50.19;101214.75;5075203;28;45540;-63
2022/06/02 02:17:29;;;;;;;;;9.00;5.00;;;;;14.54;50.67;101210.38;5075596;27;45424;-63
2022/06/02 02:20:28;;;;;;;;;4.00;4.00;;;;;14.53;51.06;101211.31;5076815;27;45235;-63
2022/06/02 02:23:10;;;;;;;;;4.00;4.00;;;;;14.52;50.77;101210.47;5074057;27;45505;-64
2022/06/02 02:26:03;;;;;;;;;3.00;3.00;;;;;14.43;50.97;101206.50;5072116;28;45374;-62
2022/06/02 02:28:44;;;;;;;;;3.00;3.00;;;;;14.45;51.08;101210.00;5073278;27;46160;-63
2022/06/02 02:31:09;;;;;;;;;7.00;5.00;;;;;14.41;51.75;101204.88;5074748;27;45564;-64
2022/06/02 02:33:46;;;;;;;;;4.00;4.00;;;;;14.37;51.97;101203.38;5075604;27;45374;-66
2022/06/02 02:36:39;;;;;;;;;4.67;4.00;;;;;14.31;51.16;101211.75;5075267;27;45458;-63
2022/06/02 02:39:17;;;;;;;;;4.00;4.00;;;;;14.30;51.98;101207.38;5055441;28;47330;-63
2022/06/02 02:41:51;;;;;;;;;7.00;7.00;;;;;14.26;52.31;101203.16;5094101;27;45421;-64
2022/06/02 02:44:47;;;;;;;;;5.00;5.00;;;;;14.25;51.39;101202.31;5065763;28;45455;-64
2022/06/02 02:47:37;;;;;;;;;4.00;4.00;;;;;14.26;51.54;101203.16;5065862;27;45427;-63
2022/06/02 02:50:10;;;;;;;;;5.67;5.33;;;;;14.20;51.34;101201.75;5078043;27;45393;-63
2022/06/02 02:52:47;;;;;;;;;8.00;4.00;;;;;14.18;52.10;101201.81;5080064;27;45241;-63
2022/06/02 02:55:36;;;;;;;;;3.33;3.33;;;;;14.15;51.89;101212.69;5081352;27;45423;-64
2022/06/02 02:58:07;;;;;;;;;4.33;4.33;;;;;14.19;51.99;101218.72;5078618;27;45459;-63
2022/06/02 03:00:43;;;;;;;;;4.33;4.33;;;;;14.10;51.69;101212.13;5079261;27;46711;-64
2022/06/02 03:03:56;;;;;;;;;8.67;7.67;;;;;14.06;52.58;101205.25;5071971;27;45556;-65
2022/06/02 03:06:26;;;;;;;;;5.33;5.33;;;;;14.06;52.03;101212.41;5056860;28;45642;-64
2022/06/02 03:09:10;;;;;;;;;8.33;7.00;;;;;14.09;52.64;101206.88;5055935;28;45406;-64
2022/06/02 03:11:49;;;;;;;;;3.67;3.67;;;;;14.03;52.42;101212.59;5069731;27;46348;-65
2022/06/02 03:14:30;;;;;;;;;8.00;3.00;;;;;14.01;52.41;101204.66;5079914;27;45491;-63
2022/06/02 03:17:09;;;;;;;;;8.00;7.00;;;;;13.97;52.28;101197.78;5078351;27;45932;-63
2022/06/02 03:19:40;;;;;;;;;7.00;7.00;;;;;13.98;52.04;101198.66;5084024;27;45234;-63
2022/06/02 03:22:48;;;;;;;;;7.33;7.33;;;;;14.00;52.14;101192.25;5076806;27;47892;-63
2022/06/02 03:25:26;;;;;;;;;7.00;7.00;;;;;13.95;52.31;101201.50;5069684;27;45669;-64
2022/06/02 03:28:22;;;;;;;;;7.67;7.67;;;;;13.89;52.35;101210.75;5078453;27;45210;-63
2022/06/02 03:31:15;;;;;;;;;6.00;6.00;;;;;13.93;53.34;101212.28;5078479;27;45368;-63
2022/06/02 03:33:49;;;;;;;;;8.33;8.00;;;;;13.86;53.40;101202.91;5077161;27;45542;-63
2022/06/02 03:36:36;;;;;;;;;7.00;7.00;;;;;13.85;53.26;101215.44;5079166;27;45179;-62
2022/06/02 03:39:17;;;;;;;;;6.00;6.00;;;;;13.83;52.42;101211.13;5074564;27;45181;-63
2022/06/02 03:41:59;;;;;;;;;6.33;6.33;;;;;13.78;53.02;101223.88;5075659;27;45300;-62
2022/06/02 03:45:16;;;;;;;;;9.00;8.00;;;;;13.78;52.83;101226.56;5081444;27;45519;-62
2022/06/02 03:48:00;;;;;;;;;10.00;8.00;;;;;13.79;52.88;101220.25;5059750;27;45381;-63
2022/06/02 03:50:46;;;;;;;;;8.33;8.00;;;;;13.75;54.01;101221.41;5078384;28;45868;-63
2022/06/02 03:53:45;;;;;;;;;8.33;7.00;;;;;13.69;53.61;101229.81;5077833;27;45298;-64
2022/06/02 03:56:10;;;;;;;;;4.00;4.00;;;;;13.68;53.74;101233.44;5078357;28;45696;-63
2022/06/02 03:58:48;;;;;;;;;11.00;7.00;;;;;13.54;53.79;101208.38;5076061;27;45305;-64
2022/06/02 04:01:24;;;;;;;;;8.00;8.00;;;;;13.59;54.16;101218.78;5079103;27;45352;-64
2022/06/02 04:04:11;;;;;;;;;10.50;8.50;;;;;13.55;53.55;101201.22;5080260;27;45439;-65
2022/06/02 04:06:57;;;;;;;;;7.25;7.00;;;;;13.55;53.61;101215.44;5078065;27;45355;-65
2022/06/02 04:09:41;;;;;;;;;7.00;7.00;;;;;13.55;53.90;101231.47;5078263;27;45380;-65
2022/06/02 04:15:29;;;;;;;;;7.00;7.00;;;;;13.52;53.77;101222.75;5077057;27;45500;-64
2022/06/02 04:18:07;;;;;;;;;9.00;8.00;;;;;13.51;54.05;101235.25;5073199;27;45505;-63
2022/06/02 04:20:35;;;;;;;;;9.33;9.00;;;;;13.52;53.58;101236.97;5070395;27;45474;-62
2022/06/02 04:23:18;;;;;;;;;6.75;6.75;;;;;13.54;54.38;101232.41;5078179;27;45499;-63
2022/06/02 04:25:55;;;;;;;;;7.25;7.25;;;;;13.53;54.13;101235.16;5078242;27;45264;-64
2022/06/02 04:28:30;;;;;;;;;10.75;8.25;;;;;13.55;54.13;101238.63;5079381;27;46107;-64
2022/06/02 04:31:19;;;;;;;;;11.00;11.00;;;;;13.58;53.38;101241.97;5075132;27;45487;-63
2022/06/02 04:34:20;;;;;;;;;10.33;8.67;;;;;13.64;53.92;101243.41;5076824;27;45502;-64
2022/06/02 04:37:00;;;;;;;;;13.00;11.25;;;;;13.70;53.32;101234.19;5092839;27;45990;-64
2022/06/02 04:40:03;;;;;;;;;9.00;8.00;;;;;13.75;52.75;101249.00;5076276;28;46405;-64
2022/06/02 04:42:55;;;;;;;;;13.00;9.00;;;;;13.80;53.30;101257.63;5078649;27;45394;-65
2022/06/02 04:45:31;;;;;;;;;11.25;9.00;;;;;13.83;53.04;101259.25;5079490;27;45324;-64
2022/06/02 04:48:12;;;;;;;;;9.33;8.00;;;;;13.80;53.23;101249.59;5077097;27;45540;-64
2022/06/02 04:50:44;;;;;;;;;7.33;7.33;;;;;13.80;53.48;101249.59;5079902;27;46138;-65
2022/06/02 04:53:18;;;;;;;;;12.00;8.00;;;;;13.85;53.60;101252.00;5073282;27;45283;-65
2022/06/02 04:56:07;;;;;;;;;8.67;8.67;;;;;13.87;53.44;101250.09;5076936;27;45334;-63
2022/06/02 04:59:06;;;;;;;;;9.33;9.00;;;;;13.93;52.67;101248.84;5068651;27;45548;-65
2022/06/02 05:01:41;;;;;;;;;12.00;10.33;;;;;13.92;52.79;101242.63;5079365;27;45790;-65
2022/06/02 05:04:33;;;;;;;;;8.50;8.50;;;;;14.01;52.87;101247.44;5077073;27;45282;-62
2022/06/02 05:07:18;;;;;;;;;12.75;12.75;;;;;14.02;53.34;101243.81;5078117;27;45381;-64
2022/06/02 05:10:01;;;;;;;;;13.00;12.67;;;;;14.03;52.54;101248.22;5072928;27;45717;-62
2022/06/02 05:12:41;;;;;;;;;10.00;9.67;;;;;14.05;52.65;101238.28;5075648;27;45453;-64
2022/06/02 05:15:25;;;;;;;;;8.25;8.00;;;;;14.15;52.41;101243.94;5077761;27;45550;-64
2022/06/02 05:17:51;;;;;;;;;15.75;13.25;;;;;14.16;52.74;101245.66;5072972;27;45448;-64
2022/06/02 05:20:19;;;;;;;;;16.33;11.67;;;;;14.21;52.05;101237.38;5077848;27;45613;-63
2022/06/02 05:22:57;;;;;;;;;13.67;11.67;;;;;14.24;52.27;101242.53;5075555;27;48278;-65
2022/06/02 05:25:34;;;;;;;;;11.67;9.33;;;;;14.27;52.72;101247.69;5075340;27;45234;-62
2022/06/02 05:28:21;;;;;;;;;12.67;12.67;;;;;14.34;52.05;101251.72;5056865;27;45249;-63
2022/06/02 05:31:02;;;;;;;;;11.33;10.00;;;;;14.40;52.49;101245.97;5076786;27;45368;-63
2022/06/02 05:34:08;;;;;;;;;11.33;10.00;;;;;14.44;51.80;101242.19;5068892;27;46454;-63
2022/06/02 05:36:55;;;;;;;;;16.00;15.67;;;;;14.52;51.57;101247.94;5072099;27;45662;-64
2022/06/02 05:39:38;;;;;;;;;15.33;15.00;;;;;14.57;52.00;101244.97;5073258;27;45413;-61
2022/06/02 05:42:24;;;;;;;;;7.00;7.00;;;;;14.62;51.77;101243.75;5075653;27;45247;-64
2022/06/02 05:45:34;;;;;;;;;15.00;10.00;;;;;14.68;51.16;101256.72;5070877;27;46115;-62
2022/06/02 05:48:15;;;;;;;;;11.67;9.67;;;;;14.75;50.85;101254.53;5054063;28;45461;-66
2022/06/02 05:51:17;;;;;;;;;17.50;16.50;;;;;14.85;51.32;101254.81;5064156;27;46127;-63
2022/06/02 05:53:54;;;;;;;;;15.33;13.00;;;;;14.86;50.84;101240.47;5066394;27;45402;-63
2022/06/02 05:56:51;;;;;;;;;12.00;11.00;;;;;14.91;50.93;101251.75;5066098;27;45470;-63
2022/06/02 05:59:52;;;;;;;;;12.33;11.00;;;;;14.91;50.72;101254.41;5071402;27;45286;-66
2022/06/02 06:02:30;;;;;;;;;12.67;11.33;;;;;14.93;50.54;101252.50;5074711;27;45453;-63
2022/06/02 06:05:04;;;;;;;;;10.67;10.67;;;;;14.95;50.71;101247.91;5074874;27;45427;-66
2022/06/02 06:08:14;;;;;;;;;12.33;11.00;;;;;14.99;50.43;101252.13;5095732;27;46587;-62
2022/06/02 06:11:02;;;;;;;;;11.67;11.67;;;;;15.03;50.05;101242.94;5052124;28;45461;-61
2022/06/02 06:13:42;;;;;;;;;13.00;10.67;;;;;15.01;50.78;101252.88;5047340;28;45516;-65
2022/06/02 06:16:25;;;;;;;;;13.67;10.00;;;;;15.08;50.68;101256.00;5068319;27;45746;-63
2022/06/02 06:19:08;;;;;;;;;11.00;11.00;;;;;15.07;50.49;101259.66;5074745;27;46404;-65
2022/06/02 06:21:33;;;;;;;;;12.00;12.00;;;;;15.11;50.35;101261.19;5037815;28;46237;-65
2022/06/02 06:24:37;;;;;;;;;18.00;17.67;;;;;15.13;50.37;101260.13;5105020;27;45408;-64
2022/06/02 06:27:21;;;;;;;;;9.00;7.67;;;;;15.18;50.61;101257.16;5075902;28;45303;-62
2022/06/02 06:30:33;;;;;;;;;13.00;12.67;;;;;15.17;49.98;101250.94;5071212;27;46987;-61
2022/06/02 06:33:17;;;;;;;;;12.33;11.67;;;;;15.21;50.22;101247.09;5075789;27;45410;-60
2022/06/02 06:35:54;;;;;;;;;8.67;8.67;;;;;15.19;50.12;101254.38;5073875;27;45390;-62
2022/06/02 06:38:43;;;;;;;;;10.00;10.00;;;;;15.17;50.43;101242.91;5072958;27;45495;-62
2022/06/02 06:41:46;;;;;;;;;13.33;9.00;;;;;15.25;50.09;101243.28;5108012;27;46236;-62
2022/06/02 06:44:35;;;;;;;;;14.00;12.00;;;;;15.28;50.47;101247.56;5073045;27;45495;-61
2022/06/02 06:47:09;;;;;;;;;10.67;10.67;;;;;15.27;50.19;101246.69;5072725;27;45587;-61
2022/06/02 06:49:57;;;;;;;;;13.00;13.00;;;;;15.39;50.59;101246.88;5073378;27;46721;-63
2022/06/02 06:52:41;;;;;;;;;10.00;10.00;;;;;15.46;50.21;101248.16;5067384;27;46151;-62
2022/06/02 06:55:06;;;;;;;;;11.67;11.67;;;;;15.46;50.27;101248.16;5071314;27;45607;-61
2022/06/02 06:57:45;;;;;;;;;12.00;12.00;;;;;15.49;50.18;101250.63;5073952;27;45387;-61
2022/06/02 07:00:33;;;;;;;;;12.67;11.33;;;;;15.47;50.01;101233.78;5072662;27;46318;-62
2022/06/02 07:03:43;;;;;;;;;16.67;11.33;;;;;15.63;50.27;101253.31;5069630;27;47770;-62
2022/06/02 07:06:31;;;;;;;;;13.00;13.00;;;;;15.70;49.79;101254.63;5070863;27;45480;-62
2022/06/02 07:09:25;;;;;;;;;15.33;13.67;;;;;15.80;49.56;101258.41;5072393;27;45428;-63
2022/06/02 07:15:12;;;;;;;;;12.67;9.00;;;;;15.91;49.32;101246.97;5072291;27;45570;-61
2022/06/02 07:17:49;;;;;;;;;11.67;9.67;;;;;15.97;49.46;101251.88;5074100;27;45205;-63
2022/06/02 07:20:30;;;;;;;;;16.33;15.00;;;;;16.05;49.04;101257.59;5070934;27;46047;-63
2022/06/02 07:23:01;;;;;;;;;16.33;13.00;;;;;16.10;49.04;101262.66;5063437;28;45330;-61
2022/06/02 07:25:34;;;;;;;;;12.67;12.33;;;;;16.16;48.91;101259.56;5073484;27;45763;-65
2022/06/02 07:28:14;;;;;;;;;16.33;14.00;;;;;16.20;48.81;101258.38;5075905;27;45570;-61
2022/06/02 07:31:08;;;;;;;;;15.00;15.00;;;;;16.27;48.76;101256.97;5075473;27;45338;-61
2022/06/02 07:33:50;;;;;;;;;14.33;13.00;;;;;16.32;48.90;101256.66;5074394;27;45516;-62
2022/06/02 07:36:40;;;;;;;;;11.67;11.67;;;;;16.38;48.44;101265.13;5073357;27;46298;-62
2022/06/02 07:39:26;;;;;;;;;12.67;10.00;;;;;16.47;48.44;101259.13;5072043;27;45322;-63
2022/06/02 07:42:16;;;;;;;;;17.00;14.67;;;;;16.55;48.41;101257.75;5075579;27;45599;-62
2022/06/02 07:44:50;;;;;;;;;16.00;13.67;;;;;16.61;48.23;101254.63;5074769;27;45535;-62
2022/06/02 07:47:37;;;;;;;;;18.33;17.33;;;;;16.68;48.25;101253.25;5077884;27;45328;-62
2022/06/02 07:50:14;;;;;;;;;11.00;11.00;;;;;16.86;47.89;101260.00;5078456;27;45535;-62
2022/06/02 07:53:01;;;;;;;;;9.33;9.33;;;;;17.04;47.33;101249.72;5077778;27;45411;-63
2022/06/02 07:55:58;;;;;;;;;10.33;10.33;;;;;17.22;46.80;101247.56;5058081;28;45224;-62
2022/06/02 07:58:40;;;;;;;;;15.00;12.33;;;;;17.39;46.35;101247.16;5078578;27;45393;-61
2022/06/02 08:01:23;;;;;;;;;10.00;8.00;;;;;17.53;45.62;101248.81;5067967;27;45405;-61
2022/06/02 08:03:58;;;;;;;;;13.00;10.33;;;;;17.69;45.10;101247.56;5078869;27;45990;-61
2022/06/02 08:06:48;;;;;;;;;16.00;8.00;;;;;17.81;45.33;101237.72;5077425;27;45270;-61
2022/06/02 08:09:24;;;;;;;;;8.00;8.00;;;;;17.89;44.96;101237.16;5077185;27;46343;-62
2022/06/02 08:12:17;;;;;;;;;16.00;10.33;;;;;17.92;44.97;101236.91;5072201;27;45546;-65
2022/06/02 08:14:54;;;;;;;;;8.33;8.33;;;;;18.02;44.75;101226.31;5067044;27;45373;-62
2022/06/02 08:17:28;;;;;;;;;7.67;7.67;;;;;18.21;44.36;101226.56;5078505;27;45583;-63
2022/06/02 08:20:06;;;;;;;;;9.67;9.67;;;;;18.50;43.20;101222.47;5077982;27;45378;-65
2022/06/02 08:22:58;;;;;;;;;10.67;7.67;;;;;18.80;42.27;101227.28;5084426;27;45328;-64
2022/06/02 08:25:28;;;;;;;;;8.33;8.33;;;;;19.04;41.33;101227.13;5093773;27;45451;-61
2022/06/02 08:28:35;;;;;;;;;9.00;9.00;;;;;19.23;41.66;101215.69;5071181;27;45531;-62
2022/06/02 08:31:06;;;;;;;;;9.00;9.00;;;;;19.48;41.37;101217.19;5076288;27;45515;-62
2022/06/02 08:33:55;;;;;;;;;10.33;9.00;;;;;19.67;41.17;101219.25;5078202;27;45474;-61
2022/06/02 08:36:41;;;;;;;;;10.00;6.33;;;;;19.96;40.12;101212.22;5078717;27;45288;-62
2022/06/02 08:39:12;;;;;;;;;9.33;6.67;;;;;20.08;39.19;101201.38;5078797;27;45340;-61
2022/06/02 08:41:56;;;;;;;;;5.33;5.00;;;;;20.15;38.52;101203.38;5077934;27;46237;-61
2022/06/02 08:44:31;;;;;;;;;6.00;6.00;;;;;20.33;38.54;101201.81;5077677;27;45327;-61
2022/06/02 08:47:38;;;;;;;;;5.00;5.00;;;;;20.49;38.29;101195.09;5057696;27;45347;-61
2022/06/02 08:50:29;;;;;;;;;5.00;5.00;;;;;20.66;38.69;101190.88;5073529;27;45605;-61
2022/06/02 08:53:14;;;;;;;;;6.00;6.00;;;;;20.79;38.04;101186.09;5072039;28;46183;-66
2022/06/02 08:56:02;;;;;;;;;5.33;5.33;;;;;20.75;38.04;101184.66;5073270;28;45428;-62
2022/06/02 08:58:34;;;;;;;;;5.33;5.33;;;;;20.86;37.46;101192.66;5092380;27;45512;-61
2022/06/02 09:01:29;;;;;;;;;5.67;5.67;;;;;20.87;37.38;101189.81;5077850;27;45397;-61
2022/06/02 09:04:19;;;;;;;;;7.00;7.00;;;;;20.89;38.07;101186.97;5077236;28;45520;-61
2022/06/02 09:07:16;;;;;;;;;5.67;5.67;;;;;20.98;37.51;101190.72;5092788;27;45446;-61
2022/06/02 09:10:01;;;;;;;;;6.00;6.00;;;;;21.03;37.30;101186.59;5076816;28;45373;-61
2022/06/02 09:12:38;;;;;;;;;9.00;9.00;;;;;21.27;37.56;101190.78;5077396;27;45484;-63
2022/06/02 09:15:25;;;;;;;;;7.00;6.00;;;;;21.47;36.88;101187.09;5077381;27;45979;-61
2022/06/02 09:18:03;;;;;;;;;6.67;6.67;;;;;21.48;36.65;101180.69;5076662;28;45396;-61
2022/06/02 09:20:47;;;;;;;;;8.00;6.33;;;;;21.56;36.94;101180.84;5069324;27;45444;-60
2022/06/02 09:23:16;;;;;;;;;5.67;5.67;;;;;21.73;36.41;101185.50;5076977;27;45492;-60
2022/06/02 09:26:09;;;;;;;;;8.67;7.33;;;;;22.00;35.58;101173.06;5077016;27;45612;-62
2022/06/02 09:28:38;;;;;;;;;5.00;5.00;;;;;22.33;34.19;101169.03;5075007;28;45394;-62
2022/06/02 09:31:22;;;;;;;;;5.75;5.75;;;;;22.55;34.67;101175.97;5077440;27;45461;-61
2022/06/02 09:33:48;;;;;;;;;4.50;4.50;;;;;22.93;34.58;101183.94;5077477;27;45406;-62
2022/06/02 09:36:16;;;;;;;;;6.00;5.50;;;;;23.17;32.91;101179.75;5075656;27;48083;-61
2022/06/02 09:38:58;;;;;;;;;6.00;6.00;;;;;23.29;32.63;101180.41;5077143;27;45487;-62
2022/06/02 09:41:59;;;;;;;;;14.00;9.33;;;;;23.73;32.29;101178.66;5076958;27;45453;-61
2022/06/02 09:44:51;;;;;;;;;4.25;4.25;;;;;24.13;31.42;101168.09;5073305;27;46339;-61
2022/06/02 09:47:44;;;;;;;;;42.00;35.67;;;;;24.46;30.53;101173.72;5076015;28;45435;-62
2022/06/02 09:50:45;;;;;;;;;4.25;4.25;;;;;24.66;31.18;101172.47;5077010;28;45366;-62
2022/06/02 09:53:33;;;;;;;;;5.00;5.00;;;;;24.98;30.06;101173.59;5077295;27;45281;-61
2022/06/02 09:56:35;;;;;;;;;3.00;3.00;;;;;25.31;28.86;101176.47;5077044;27;45265;-61
2022/06/02 09:59:18;;;;;;;;;4.00;3.00;;;;;25.63;28.35;101172.91;5076668;27;46286;-61
2022/06/02 10:01:44;;;;;;;;;3.60;3.60;;;;;25.97;28.02;101175.50;5077105;27;45431;-60
2022/06/02 10:04:28;;;;;;;;;4.00;4.00;;;;;26.18;28.06;101184.00;5077096;27;45234;-62
2022/06/02 10:07:05;;;;;;;;;4.00;4.00;;;;;26.43;27.26;101182.94;5075551;27;45581;-61
2022/06/02 10:09:49;;;;;;;;;3.75;3.75;;;;;26.66;26.90;101177.56;5076423;27;45443;-62
2022/06/02 10:13:03;;;;;;;;;3.60;3.40;;;;;26.69;28.04;101176.34;5062664;27;45211;-62
2022/06/02 10:15:41;;;;;;;;;4.00;2.00;;;;;26.95;26.77;101160.53;5088640;27;45421;-61
2022/06/02 10:18:25;;;;;;;;;4.00;4.00;;;;;27.21;27.51;101170.31;5056263;28;45550;-61
2022/06/02 10:21:09;;;;;;;;;4.00;4.00;;;;;27.26;25.81;101165.16;5055578;28;46448;-62
2022/06/02 10:23:56;;;;;;;;;5.00;5.00;;;;;27.13;25.43;101163.03;5056669;27;45359;-61
2022/06/02 10:27:01;;;;;;;;;3.40;3.40;;;;;26.87;26.90;101157.84;5068814;28;45511;-61
2022/06/02 10:30:04;;;;;;;;;3.80;2.80;;;;;26.84;26.64;101151.91;5092269;27;45385;-61
2022/06/02 10:32:48;;;;;;;;;3.80;3.80;;;;;26.66;27.28;101154.88;5108932;27;46985;-62
2022/06/02 10:35:51;;;;;;;;;1.80;1.80;;;;;26.32;25.79;101142.38;5074969;28;45361;-61
2022/06/02 10:38:58;;;;;;;;;5.40;4.40;;;;;25.94;26.35;101148.59;5074715;28;45482;-62
2022/06/02 10:41:37;;;;;;;;;3.00;3.00;;;;;25.68;27.40;101143.28;5073252;27;45566;-63
2022/06/02 10:44:06;;;;;;;;;2.60;2.60;;;;;25.49;27.44;101141.75;5076255;27;46266;-61
2022/06/02 10:46:58;;;;;;;;;7.60;5.00;;;;;25.21;28.34;101142.06;5074510;27;45656;-61
2022/06/02 10:49:36;;;;;;;;;9.00;7.50;;;;;24.94;27.99;101147.75;5076149;28;45521;-61
2022/06/02 10:52:26;;;;;;;;;5.00;5.00;;;;;24.76;29.36;101142.44;5076079;27;45292;-59
2022/06/02 10:55:16;;;;;;;;;5.00;5.00;;;;;24.60;28.92;101137.75;5075533;28;46516;-61
2022/06/02 10:57:50;;;;;;;;;3.20;3.20;;;;;24.38;28.58;101138.38;5076193;27;45443;-62
2022/06/02 11:00:21;;;;;;;;;5.25;4.50;;;;;24.27;28.55;101144.03;5075758;28;45366;-60
2022/06/02 11:03:17;;;;;;;;;3.00;3.00;;;;;24.06;29.16;101134.41;5079790;27;45340;-61
2022/06/02 11:06:21;;;;;;;;;6.25;4.25;;;;;24.05;29.42;101132.69;5079721;28;45314;-61
2022/06/02 11:09:14;;;;;;;;;5.25;4.75;;;;;24.01;29.28;101125.03;5078681;27;45457;-61
2022/06/02 11:12:13;;;;;;;;;3.50;3.50;;;;;23.96;29.74;101121.94;5079240;27;45376;-61
2022/06/02 11:15:16;;;;;;;;;4.75;4.75;;;;;23.89;30.70;101110.88;5083881;27;45184;-52
2022/06/02 11:17:56;;;;;;;;;4.00;4.00;;;;;23.95;29.57;101110.22;5073579;27;45441;-51
2022/06/02 11:20:37;;;;;;;;;5.25;4.75;;;;;23.97;28.63;101116.38;5076747;27;45719;-51
2022/06/02 11:23:05;;;;;;;;;6.75;4.75;;;;;24.01;28.64;101114.16;5095552;27;45339;-49
2022/06/02 11:26:03;;;;;;;;;5.50;4.00;;;;;24.10;28.30;101111.34;5084431;27;45381;-52
2022/06/02 11:29:05;;;;;;;;;3.75;3.75;;;;;24.27;28.62;101115.00;5086994;27;46696;-49
2022/06/02 11:31:57;;;;;;;;;4.00;4.00;;;;;24.52;29.06;101098.84;5072734;28;45404;-50
2022/06/02 11:34:41;;;;;;;;;5.25;4.00;;;;;24.71;28.70;101096.69;5077476;27;45276;-51
2022/06/02 11:37:25;;;;;;;;;5.00;5.00;;;;;24.86;29.50;101087.88;5084145;27;45294;-52
2022/06/02 11:40:21;;;;;;;;;5.50;4.50;;;;;24.92;27.42;101098.94;5097756;27;46194;-52
2022/06/02 11:42:46;;;;;;;;;5.00;3.50;;;;;25.04;27.68;101096.78;5058308;28;45350;-53
2022/06/02 11:45:55;;;;;;;;;3.25;3.25;;;;;25.17;26.23;101078.09;5059082;28;45315;-51
2022/06/02 11:48:27;;;;;;;;;4.00;4.00;;;;;25.38;26.13;101082.16;5058608;28;45398;-52
2022/06/02 11:51:13;;;;;;;;;3.25;3.25;;;;;25.43;26.57;101086.09;5095196;27;45669;-49
2022/06/02 11:53:50;;;;;;;;;4.20;4.00;;;;;25.35;26.13;101090.69;5099427;27;45256;-51
2022/06/02 11:56:45;;;;;;;;;4.25;4.25;;;;;25.30;26.77;101077.59;5099633;27;45487;-49
2022/06/02 11:59:20;;;;;;;;;3.50;3.50;;;;;25.30;26.20;101088.47;5082587;27;45360;-52
2022/06/02 12:01:55;;;;;;;;;3.25;3.00;;;;;25.33;26.27;101079.13;5078853;27;46554;-48
2022/06/02 12:04:31;;;;;;;;;4.00;4.00;;;;;25.24;26.45;101080.97;5078481;27;45441;-49
2022/06/02 12:07:40;;;;;;;;;4.00;3.00;;;;;25.23;26.53;101066.53;5077131;27;45353;-52
2022/06/02 12:10:49;;;;;;;;;3.00;3.00;;;;;25.16;26.79;101060.06;5078661;27;45364;-47
2022/06/02 12:13:29;;;;;;;;;4.50;4.50;;;;;25.18;26.73;101054.44;5058563;28;46671;-50
2022/06/02 12:16:22;;;;;;;;;3.50;3.50;;;;;25.24;26.87;101053.75;5072021;27;45226;-47
2022/06/02 12:19:25;;;;;;;;;4.00;4.00;;;;;25.37;25.71;101059.53;5078544;27;45364;-48
2022/06/02 12:21:59;;;;;;;;;4.00;4.00;;;;;25.73;25.52;101049.16;5078303;27;45330;-52
2022/06/02 12:24:49;;;;;;;;;2.75;2.75;;;;;25.82;25.51;101052.72;5077264;27;45566;-50
2022/06/02 12:27:33;;;;;;;;;3.00;3.00;;;;;25.83;26.46;101049.81;5075092;28;45548;-50
2022/06/02 12:29:58;;;;;;;;;4.00;4.00;;;;;25.99;26.83;101045.34;5077961;27;45334;-49
2022/06/02 12:32:53;;;;;;;;;3.25;3.25;;;;;26.13;26.39;101039.16;5078096;27;45527;-48
2022/06/02 12:35:36;;;;;;;;;3.00;3.00;;;;;26.23;26.86;101033.50;5077828;27;45537;-47
2022/06/02 12:38:01;;;;;;;;;5.60;4.20;;;;;26.22;27.97;101038.09;5077758;27;45392;-51
2022/06/02 12:40:37;;;;;;;;;5.25;5.25;;;;;26.21;26.10;101028.22;5077659;27;45859;-49
2022/06/02 12:43:23;;;;;;;;;3.75;3.75;;;;;26.18;25.69;101025.88;5077808;27;45595;-47
2022/06/02 12:45:57;;;;;;;;;4.25;4.25;;;;;26.15;24.66;101024.31;5077818;27;45445;-46
2022/06/02 12:48:31;;;;;;;;;4.80;4.20;;;;;26.45;28.23;101033.59;5077263;27;45467;-49